Time;durP1;ratioP1;P1;durP2;ratioP2;P2;SDS_P1;SDS_P2;PMS_P1;PMS_P2;Temp;Humidity;BMP_temperature;BMP_pressure;BME280_temperature;BME280_humidity;BME280_pressure;Samples;Min_cycle;Max_cycle;Signal;HPM_P1;HPM_P2
2023/05/03 00:03:39;;;;;;;1.58;1.23;;;13.70;91.30;;;;;;10410768;28;20025;-84
2023/05/03 00:08:39;;;;;;;1.83;1.20;;;12.90;91.10;;;;;;10407012;28;20033;-83
2023/05/03 00:13:41;;;;;;;1.92;0.90;;;12.50;91.00;;;;;;10398628;28;20017;-84
2023/05/03 00:18:41;;;;;;;1.55;1.10;;;12.50;91.00;;;;;;10392767;28;20041;-83
2023/05/03 00:23:42;;;;;;;2.67;0.93;;;12.40;90.90;;;;;;10392511;28;20061;-85
2023/05/03 00:28:43;;;;;;;2.42;1.10;;;12.90;91.10;;;;;;10393116;28;20021;-84
2023/05/03 00:33:44;;;;;;;1.80;1.10;;;12.30;90.90;;;;;;10392356;28;20374;-85
2023/05/03 00:38:46;;;;;;;3.03;1.10;;;12.30;90.90;;;;;;10393904;28;20025;-84
2023/05/03 00:43:46;;;;;;;1.52;1.10;;;12.30;90.90;;;;;;10397761;28;20102;-84
2023/05/03 00:48:48;;;;;;;2.03;0.98;;;12.30;90.90;;;;;;10393775;28;20588;-85
2023/05/03 00:53:50;;;;;;;2.42;1.42;;;12.30;90.90;;;;;;10391458;28;20025;-84
2023/05/03 00:58:51;;;;;;;1.85;0.95;;;12.20;90.80;;;;;;10393799;28;20033;-84
2023/05/03 01:03:51;;;;;;;2.55;1.40;;;12.60;90.90;;;;;;10390019;28;20032;-84
2023/05/03 01:09:11;;;;;;;4.70;1.08;;;12.40;90.90;;;;;;10395737;28;20029;-85
2023/05/03 01:14:38;;;;;;;1.23;0.75;;;12.10;90.90;;;;;;10390611;28;20675;-84
2023/05/03 01:19:50;;;;;;;1.83;1.33;;;12.10;90.70;;;;;;10399488;28;20477;-85
2023/05/03 01:25:00;;;;;;;2.45;1.00;;;12.10;90.70;;;;;;10392775;28;20092;-84
2023/05/03 01:30:09;;;;;;;2.85;1.00;;;12.00;90.70;;;;;;10394275;28;20029;-84
2023/05/03 01:35:28;;;;;;;;;;;12.00;90.70;;;;;;10396589;28;20076;-85
2023/05/03 01:40:29;;;;;;;;;;;11.90;90.60;;;;;;10385733;28;19952;-84
2023/05/03 01:45:30;;;;;;;1.48;0.90;;;11.90;90.60;;;;;;10397772;28;19911;-84
2023/05/03 01:50:30;;;;;;;1.83;1.00;;;11.90;90.70;;;;;;10393433;28;20105;-84
2023/05/03 01:55:31;;;;;;;1.65;1.55;;;11.90;90.70;;;;;;10393647;28;20061;-84
2023/05/03 02:00:32;;;;;;;2.00;1.17;;;11.80;90.70;;;;;;10396269;28;20057;-84
2023/05/03 02:05:32;;;;;;;1.92;1.00;;;11.80;90.70;;;;;;10397393;28;20033;-84
2023/05/03 02:10:33;;;;;;;2.33;1.13;;;12.00;90.70;;;;;;10395575;28;20423;-84
2023/05/03 02:15:34;;;;;;;1.70;1.00;;;12.90;91.00;;;;;;10401728;28;20022;-84
2023/05/03 02:20:36;;;;;;;1.30;1.00;;;11.70;90.70;;;;;;10400573;28;20032;-85
2023/05/03 02:25:37;;;;;;;3.25;1.10;;;11.70;90.70;;;;;;10399819;28;20067;-84
2023/05/03 02:30:37;;;;;;;2.55;0.90;;;12.40;90.80;;;;;;10404060;28;20079;-84
2023/05/03 02:35:38;;;;;;;0.88;0.80;;;12.30;90.80;;;;;;10408248;28;20037;-85
2023/05/03 02:40:39;;;;;;;2.97;1.40;;;11.60;90.60;;;;;;10406542;28;20147;-84
2023/05/03 02:45:39;;;;;;;1.10;0.80;;;11.60;90.60;;;;;;10410833;28;20017;-84
2023/05/03 02:50:40;;;;;;;1.95;0.90;;;11.60;90.60;;;;;;10402977;28;20072;-85
2023/05/03 02:55:40;;;;;;;2.30;1.00;;;11.50;90.60;;;;;;10406855;28;20080;-84
2023/05/03 03:00:41;;;;;;;1.15;0.77;;;11.50;90.60;;;;;;10400612;28;20022;-84
2023/05/03 03:05:42;;;;;;;1.77;1.02;;;11.50;90.60;;;;;;10405491;28;20500;-84
2023/05/03 03:10:45;;;;;;;2.83;1.60;;;11.40;90.60;;;;;;10402843;28;20084;-84
2023/05/03 03:15:46;;;;;;;1.48;0.80;;;11.40;90.60;;;;;;10411178;28;20566;-85
2023/05/03 03:20:46;;;;;;;2.08;1.00;;;11.40;90.60;;;;;;10384325;28;20093;-85
2023/05/03 03:25:47;;;;;;;1.98;1.67;;;11.40;90.60;;;;;;10404299;28;20103;-84
2023/05/03 03:30:48;;;;;;;1.92;1.05;;;11.30;90.50;;;;;;10410633;28;20042;-86
2023/05/03 03:35:48;;;;;;;2.67;1.10;;;11.30;90.50;;;;;;10393710;28;20025;-84
2023/05/03 03:40:49;;;;;;;1.38;1.02;;;11.30;90.50;;;;;;10405448;28;20384;-84
2023/05/03 03:45:50;;;;;;;1.50;0.90;;;11.30;90.50;;;;;;10395886;28;20201;-84
2023/05/03 03:50:51;;;;;;;1.10;0.77;;;11.20;90.50;;;;;;10404980;28;20072;-84
2023/05/03 03:55:51;;;;;;;1.55;0.82;;;12.20;90.70;;;;;;10404940;28;20029;-84
2023/05/03 04:00:55;;;;;;;1.80;1.05;;;11.20;90.50;;;;;;10408974;28;20041;-84
2023/05/03 04:05:56;;;;;;;1.05;0.95;;;11.40;90.60;;;;;;10407587;28;20014;-84
2023/05/03 04:10:57;;;;;;;1.42;0.85;;;11.20;90.50;;;;;;10411757;28;20067;-85
2023/05/03 04:15:57;;;;;;;1.20;1.00;;;11.10;90.50;;;;;;10421886;28;20086;-85
2023/05/03 04:20:58;;;;;;;1.90;1.08;;;11.60;90.60;;;;;;10417310;28;20029;-84
2023/05/03 04:25:58;;;;;;;2.42;1.80;;;11.10;90.50;;;;;;10419934;28;20048;-91
2023/05/03 04:30:59;;;;;;;2.55;1.10;;;11.00;90.40;;;;;;10433770;28;20033;-86
2023/05/03 04:36:01;;;;;;;1.88;0.90;;;11.00;90.50;;;;;;10427565;28;20644;-86
2023/05/03 04:41:01;;;;;;;1.50;1.10;;;11.00;90.40;;;;;;10404418;28;20068;-85
2023/05/03 04:46:03;;;;;;;1.65;1.10;;;11.00;90.40;;;;;;10412920;28;20083;-84
2023/05/03 04:51:04;;;;;;;1.42;1.30;;;11.00;90.40;;;;;;10421129;28;20093;-83
2023/05/03 04:56:06;;;;;;;5.72;1.70;;;11.00;90.40;;;;;;10415854;28;20064;-89
2023/05/03 05:01:07;;;;;;;5.03;1.63;;;11.00;90.30;;;;;;10419700;28;20037;-84
2023/05/03 05:06:08;;;;;;;2.28;1.33;;;11.00;90.30;;;;;;10436019;28;20028;-84
2023/05/03 05:11:09;;;;;;;2.05;1.33;;;11.00;90.30;;;;;;10420653;28;20091;-85
2023/05/03 05:16:10;;;;;;;3.33;1.50;;;10.90;90.20;;;;;;10420224;28;20037;-84
2023/05/03 05:21:11;;;;;;;3.45;1.58;;;11.00;90.20;;;;;;10413667;28;20068;-84
2023/05/03 05:26:12;;;;;;;2.17;1.38;;;11.00;90.20;;;;;;10422534;28;20086;-84
2023/05/03 05:31:14;;;;;;;2.47;1.38;;;11.00;90.20;;;;;;10435107;28;20029;-85
2023/05/03 05:36:15;;;;;;;2.53;1.25;;;11.00;90.20;;;;;;10414869;28;20034;-88
2023/05/03 05:41:15;;;;;;;1.77;1.20;;;11.50;90.30;;;;;;10423410;28;20040;-84
2023/05/03 05:46:16;;;;;;;2.10;1.23;;;11.00;90.10;;;;;;10416639;28;20036;-86
2023/05/03 05:51:17;;;;;;;2.25;1.17;;;11.60;90.30;;;;;;10421730;28;20021;-84
2023/05/03 05:56:17;;;;;;;2.90;1.20;;;11.00;90.10;;;;;;10449181;28;20032;-88
2023/05/03 06:01:18;;;;;;;3.40;1.20;;;11.00;90.10;;;;;;10440351;28;20489;-85
2023/05/03 06:06:19;;;;;;;2.72;1.38;;;11.00;90.10;;;;;;10427831;28;20041;-86
2023/05/03 06:11:20;;;;;;;1.65;1.30;;;11.00;90.10;;;;;;10427828;28;20026;-84
2023/05/03 06:16:21;;;;;;;1.58;1.25;;;11.00;90.10;;;;;;10426967;28;20164;-83
2023/05/03 06:21:21;;;;;;;3.30;1.10;;;11.90;90.30;;;;;;10418588;28;20286;-84
2023/05/03 06:26:22;;;;;;;1.42;1.13;;;11.10;90.10;;;;;;10425871;28;20111;-84
2023/05/03 06:31:24;;;;;;;4.13;1.35;;;11.20;90.10;;;;;;10416647;28;20025;-85
2023/05/03 06:36:26;;;;;;;2.28;1.00;;;11.10;90.10;;;;;;10407438;28;20018;-85
2023/05/03 06:41:27;;;;;;;1.40;1.20;;;11.20;90.10;;;;;;10406505;28;20033;-85
2023/05/03 06:46:27;;;;;;;2.03;1.08;;;11.10;90.10;;;;;;10404844;28;20052;-85
2023/05/03 06:51:29;;;;;;;1.23;1.10;;;11.10;90.10;;;;;;10406773;28;20108;-85
2023/05/03 06:56:30;;;;;;;1.35;1.10;;;11.20;90.10;;;;;;10407862;28;20444;-85
2023/05/03 07:01:31;;;;;;;1.88;0.90;;;11.20;90.10;;;;;;10383260;28;20034;-86
2023/05/03 07:06:31;;;;;;;1.20;1.10;;;11.20;90.00;;;;;;10399063;28;20480;-86
2023/05/03 07:11:35;;;;;;;1.02;0.93;;;11.30;90.20;;;;;;10401364;28;20092;-85
2023/05/03 07:16:36;;;;;;;1.00;0.80;;;11.30;90.00;;;;;;10406168;28;20580;-86
2023/05/03 07:21:36;;;;;;;0.85;0.82;;;11.60;90.10;;;;;;10401863;28;20116;-86
2023/05/03 07:26:37;;;;;;;0.73;0.70;;;11.30;90.00;;;;;;10397360;28;20021;-85
2023/05/03 07:31:38;;;;;;;2.05;0.73;;;11.40;90.00;;;;;;10395128;28;20026;-86
2023/05/03 07:36:39;;;;;;;1.17;0.80;;;11.40;90.00;;;;;;10396822;28;20032;-85
2023/05/03 07:41:39;;;;;;;2.00;0.88;;;12.40;90.20;;;;;;10399674;28;20053;-86
2023/05/03 07:46:40;;;;;;;1.77;1.00;;;11.50;89.90;;;;;;10403157;28;20017;-85
2023/05/03 07:51:41;;;;;;;1.75;1.02;;;11.60;89.80;;;;;;10393416;28;20520;-86
2023/05/03 07:56:42;;;;;;;2.30;0.90;;;11.60;89.80;;;;;;10395164;28;20075;-86
2023/05/03 08:01:42;;;;;;;1.00;0.90;;;11.70;89.70;;;;;;10402199;28;20033;-86
2023/05/03 08:06:43;;;;;;;1.02;0.77;;;11.70;89.60;;;;;;10396837;28;20029;-85
2023/05/03 08:11:44;;;;;;;1.83;0.90;;;11.70;89.50;;;;;;10393890;28;20033;-85
2023/05/03 08:16:44;;;;;;;1.48;1.05;;;11.80;89.60;;;;;;10394262;28;20026;-85
2023/05/03 08:21:48;;;;;;;2.33;0.98;;;11.80;89.50;;;;;;10399298;28;20420;-86
2023/05/03 08:26:49;;;;;;;1.02;0.82;;;11.80;89.50;;;;;;10394386;28;20075;-86
2023/05/03 08:31:50;;;;;;;1.25;0.73;;;11.80;89.50;;;;;;10397039;28;20026;-85
2023/05/03 08:36:50;;;;;;;1.73;0.90;;;12.00;89.70;;;;;;10389906;28;20418;-85
2023/05/03 08:42:00;;;;;;;1.00;0.80;;;12.50;90.00;;;;;;10394208;28;20049;-86
2023/05/03 08:47:05;;;;;;;1.35;0.90;;;11.90;89.70;;;;;;10396247;28;20375;-85
2023/05/03 08:52:07;;;;;;;2.88;0.93;;;11.90;89.70;;;;;;10396465;28;20079;-87
2023/05/03 08:57:13;;;;;;;2.13;0.90;;;11.90;89.70;;;;;;10398493;28;20022;-86
2023/05/03 09:02:17;;;;;;;1.02;0.93;;;11.90;89.70;;;;;;10393781;28;20032;-85
2023/05/03 09:07:21;;;;;;;1.55;0.80;;;12.00;89.70;;;;;;10396577;28;20026;-85
2023/05/03 09:12:44;;;;;;;0.75;0.70;;;12.00;89.60;;;;;;10400733;28;20026;-85
2023/05/03 09:17:44;;;;;;;1.10;1.00;;;12.00;89.60;;;;;;10386994;28;20030;-85
2023/05/03 09:22:51;;;;;;;1.20;0.95;;;12.40;89.90;;;;;;10397055;28;20017;-85
2023/05/03 09:28:01;;;;;;;1.02;0.75;;;12.10;89.70;;;;;;10392706;28;20080;-86
2023/05/03 09:33:03;;;;;;;2.00;1.00;;;12.10;89.60;;;;;;10390889;28;20060;-85
2023/05/03 09:38:04;;;;;;;1.00;0.90;;;12.20;89.40;;;;;;10393847;28;20037;-85
2023/05/03 09:43:07;;;;;;;0.85;0.73;;;12.90;89.80;;;;;;10395493;28;20485;-86
2023/05/03 09:48:07;;;;;;;1.23;1.00;;;12.30;89.30;;;;;;10401668;28;20037;-85
2023/05/03 09:53:08;;;;;;;2.33;1.00;;;12.30;89.20;;;;;;10396474;28;20044;-85
2023/05/03 09:58:13;;;;;;;4.65;1.08;;;12.40;89.30;;;;;;10398017;28;20033;-86
2023/05/03 10:03:21;;;;;;;1.73;1.10;;;12.80;90.00;;;;;;10394831;28;20033;-85
2023/05/03 10:08:32;;;;;;;1.98;1.15;;;12.40;89.10;;;;;;10397487;28;20107;-85
2023/05/03 10:13:34;;;;;;;1.42;0.90;;;12.50;89.20;;;;;;10407405;28;20502;-85
2023/05/03 10:18:51;;;;;;;1.20;1.10;;;12.80;89.30;;;;;;10391182;28;20566;-85
2023/05/03 10:24:12;;;;;;;1.40;1.15;;;13.00;89.40;;;;;;10393862;28;20489;-85
2023/05/03 10:29:44;;;;;;;1.25;0.95;;;12.50;89.00;;;;;;10390388;28;20482;-85
2023/05/03 10:34:54;;;;;;;1.77;1.15;;;12.60;89.00;;;;;;10411773;28;20045;-82
2023/05/03 10:40:13;;;;;;;2.38;1.02;;;12.60;89.00;;;;;;10397982;28;20567;-82
2023/05/03 10:45:28;;;;;;;1.58;0.90;;;12.70;88.70;;;;;;10401830;28;20473;-83
2023/05/03 10:50:28;;;;;;;1.70;1.02;;;12.70;88.70;;;;;;10397087;28;20049;-83
2023/05/03 10:55:41;;;;;;;1.67;1.17;;;12.70;88.50;;;;;;10404658;28;20045;-83
2023/05/03 11:00:52;;;;;;;1.67;1.17;;;12.80;88.50;;;;;;10394093;28;20196;-83
2023/05/03 11:05:56;;;;;;;1.17;1.08;;;12.90;88.50;;;;;;10399719;28;20021;-83
2023/05/03 11:10:59;;;;;;;3.40;1.35;;;12.90;88.30;;;;;;10396567;28;20029;-83
2023/05/03 11:15:59;;;;;;;3.60;1.30;;;14.20;88.90;;;;;;10395790;28;20079;-83
2023/05/03 11:21:00;;;;;;;1.33;1.23;;;13.00;88.20;;;;;;10397448;28;20117;-83
2023/05/03 11:26:05;;;;;;;1.60;1.00;;;13.10;88.10;;;;;;10401104;28;20461;-82
2023/05/03 11:31:07;;;;;;;2.53;1.10;;;13.10;88.00;;;;;;10417856;28;20112;-83
2023/05/03 11:36:08;;;;;;;1.92;1.27;;;13.20;87.90;;;;;;10402470;28;20060;-83
2023/05/03 11:41:16;;;;;;;1.17;1.00;;;13.20;87.90;;;;;;10405202;28;20481;-83
2023/05/03 11:46:21;;;;;;;2.33;1.42;;;13.30;87.90;;;;;;10404061;28;20442;-82
2023/05/03 11:51:23;;;;;;;1.30;1.10;;;13.40;87.90;;;;;;10414662;28;20037;-83
2023/05/03 11:56:24;;;;;;;2.05;1.23;;;13.70;88.00;;;;;;10403086;28;20025;-83
2023/05/03 12:01:31;;;;;;;1.88;1.40;;;13.50;87.80;;;;;;10395577;28;20017;-83
2023/05/03 12:06:38;;;;;;;1.95;1.27;;;13.60;87.70;;;;;;10390880;28;20022;-83
2023/05/03 12:11:51;;;;;;;1.80;1.08;;;13.60;87.60;;;;;;10398297;28;20048;-83
2023/05/03 12:16:53;;;;;;;1.70;1.30;;;13.70;87.40;;;;;;10396829;28;20394;-83
2023/05/03 12:21:53;;;;;;;3.10;1.55;;;13.70;87.50;;;;;;10389029;28;20026;-80
2023/05/03 12:26:57;;;;;;;1.55;1.17;;;14.70;88.00;;;;;;10402640;28;20025;-82
2023/05/03 12:32:04;;;;;;;2.88;1.08;;;14.10;87.70;;;;;;10397495;28;20083;-84
2023/05/03 12:37:08;;;;;;;6.22;1.42;;;14.00;87.70;;;;;;10396463;28;20044;-85
2023/05/03 12:42:14;;;;;;;3.13;1.42;;;14.60;88.10;;;;;;10395055;28;20025;-84
2023/05/03 12:47:15;;;;;;;3.28;1.58;;;13.90;87.20;;;;;;10396381;28;20108;-84
2023/05/03 12:52:16;;;;;;;1.40;1.30;;;13.60;87.60;;;;;;10398533;28;20041;-82
2023/05/03 12:57:17;;;;;;;2.13;1.50;;;14.20;88.00;;;;;;10397598;28;20029;-83
2023/05/03 13:02:19;;;;;;;1.98;1.40;;;14.40;88.20;;;;;;10399632;28;20210;-84
2023/05/03 13:07:27;;;;;;;1.77;1.30;;;14.30;88.30;;;;;;10394428;28;20034;-83
2023/05/03 13:12:45;;;;;;;2.05;1.40;;;14.90;88.80;;;;;;10397032;28;20619;-84
2023/05/03 13:17:49;;;;;;;1.75;1.40;;;14.40;88.60;;;;;;10409719;28;20049;-82
2023/05/03 13:22:50;;;;;;;1.75;1.48;;;15.20;89.00;;;;;;10398960;28;20109;-83
2023/05/03 13:27:53;;;;;;;2.78;1.50;;;15.70;89.50;;;;;;10400625;28;20092;-84
2023/05/03 13:32:54;;;;;;;2.53;1.40;;;14.70;88.70;;;;;;10394568;28;20441;-84
2023/05/03 13:37:55;;;;;;;1.50;1.40;;;14.80;88.50;;;;;;10391640;28;20037;-82
2023/05/03 13:42:59;;;;;;;1.40;1.27;;;15.90;88.90;;;;;;10395408;28;20022;-84
2023/05/03 13:47:59;;;;;;;1.80;1.30;;;14.90;88.30;;;;;;10395812;28;20018;-84
2023/05/03 13:53:03;;;;;;;4.05;1.40;;;15.10;88.40;;;;;;10401404;28;20026;-85
2023/05/03 13:58:04;;;;;;;1.58;1.30;;;15.20;88.20;;;;;;10394740;28;20037;-84
2023/05/03 14:03:07;;;;;;;1.20;1.10;;;15.30;88.10;;;;;;10396060;28;20057;-85
2023/05/03 14:08:08;;;;;;;3.38;1.35;;;15.40;88.20;;;;;;10396882;28;20022;-84
2023/05/03 14:13:10;;;;;;;2.22;1.52;;;15.50;88.20;;;;;;10404466;28;20033;-84
2023/05/03 14:18:10;;;;;;;1.85;1.30;;;15.60;88.00;;;;;;10405416;28;20375;-85
2023/05/03 14:23:11;;;;;;;2.42;1.38;;;16.00;88.20;;;;;;10404697;28;20030;-84
2023/05/03 14:28:14;;;;;;;2.75;1.42;;;16.60;88.40;;;;;;10401134;28;20024;-84
2023/05/03 14:33:17;;;;;;;3.22;1.50;;;15.90;87.70;;;;;;10403179;28;20510;-84
2023/05/03 14:38:18;;;;;;;2.58;1.40;;;16.00;87.60;;;;;;10400396;28;20029;-84
2023/05/03 14:43:21;;;;;;;1.30;1.20;;;16.90;87.70;;;;;;10404718;28;20032;-85
2023/05/03 14:48:25;;;;;;;4.25;1.60;;;16.20;87.30;;;;;;10400888;28;20405;-84
2023/05/03 14:53:28;;;;;;;1.30;1.20;;;16.30;86.80;;;;;;10407639;28;20087;-84
2023/05/03 14:58:29;;;;;;;1.27;1.10;;;17.20;87.20;;;;;;10393883;28;20025;-84
2023/05/03 15:03:29;;;;;;;1.15;1.05;;;17.20;87.20;;;;;;10397261;28;20030;-86
2023/05/03 15:08:30;;;;;;;1.42;1.10;;;17.60;87.20;;;;;;10395893;28;20041;-86
2023/05/03 15:13:31;;;;;;;1.85;1.13;;;16.80;86.40;;;;;;10404548;28;20030;-84
2023/05/03 15:18:35;;;;;;;2.40;1.15;;;16.90;86.20;;;;;;10405221;28;20033;-83
2023/05/03 15:23:38;;;;;;;1.73;1.20;;;17.00;86.30;;;;;;10402968;28;20044;-82
2023/05/03 15:28:39;;;;;;;1.20;1.10;;;17.10;86.60;;;;;;10404049;28;20028;-82
2023/05/03 15:33:46;;;;;;;1.27;1.17;;;17.20;85.90;;;;;;10420957;28;20108;-83
2023/05/03 15:38:47;;;;;;;2.20;1.50;;;17.30;85.50;;;;;;10401860;28;20052;-86
2023/05/03 15:43:50;;;;;;;2.13;1.38;;;17.40;85.50;;;;;;10400380;28;20083;-85
2023/05/03 15:48:51;;;;;;;1.67;1.30;;;17.50;85.70;;;;;;10393539;28;20033;-85
2023/05/03 15:53:53;;;;;;;1.45;1.30;;;17.60;85.80;;;;;;10404238;28;20381;-84
2023/05/03 15:58:54;;;;;;;1.45;1.20;;;17.80;85.80;;;;;;10399267;28;20527;-84
2023/05/03 16:03:55;;;;;;;1.33;1.10;;;17.80;86.20;;;;;;10401028;28;20080;-83
2023/05/03 16:08:55;;;;;;;1.27;1.00;;;17.50;86.40;;;;;;10405264;28;20551;-81
2023/05/03 16:13:56;;;;;;;1.50;1.35;;;17.40;86.80;;;;;;10400940;28;20109;-83
2023/05/03 16:18:57;;;;;;;1.35;1.20;;;17.80;87.40;;;;;;10401822;28;20168;-82
2023/05/03 16:23:58;;;;;;;1.95;1.27;;;17.20;87.40;;;;;;10403825;28;20041;-84
2023/05/03 16:28:59;;;;;;;1.67;1.05;;;17.20;87.70;;;;;;10398004;28;20238;-84
2023/05/03 16:34:00;;;;;;;2.05;1.27;;;17.10;88.10;;;;;;10402093;28;20064;-86
2023/05/03 16:39:01;;;;;;;1.58;1.17;;;17.10;88.50;;;;;;10410510;28;20033;-87
2023/05/03 16:44:06;;;;;;;1.80;1.10;;;17.00;88.60;;;;;;10425528;28;20068;-89
2023/05/03 16:49:09;;;;;;;3.13;1.30;;;17.10;88.90;;;;;;10424812;28;20030;-91
2023/05/03 16:54:10;;;;;;;2.72;1.52;;;17.20;88.90;;;;;;10422725;28;20036;-89
2023/05/03 16:59:11;;;;;;;2.45;1.10;;;17.30;88.80;;;;;;10439950;28;20055;-89
2023/05/03 17:04:13;;;;;;;2.55;1.38;;;16.80;88.80;;;;;;10404702;28;20036;-86
2023/05/03 17:09:13;;;;;;;2.42;1.38;;;16.90;88.90;;;;;;10419778;28;20516;-86
2023/05/03 17:14:14;;;;;;;2.88;1.33;;;16.80;88.90;;;;;;10415929;28;20030;-88
2023/05/03 17:19:16;;;;;;;1.40;1.30;;;16.70;89.30;;;;;;10418564;28;20026;-87
2023/05/03 17:24:17;;;;;;;2.20;1.35;;;16.70;88.90;;;;;;10407262;28;20017;-87
2023/05/03 17:29:19;;;;;;;1.40;1.30;;;16.70;89.10;;;;;;10426588;28;20026;-87
2023/05/03 17:34:21;;;;;;;2.08;1.30;;;16.60;89.00;;;;;;10404853;28;20046;-88
2023/05/03 17:39:22;;;;;;;3.38;2.30;;;16.70;89.60;;;;;;10405498;28;20029;-87
2023/05/03 17:44:22;;;;;;;2.72;1.52;;;16.50;89.20;;;;;;10430462;28;20350;-88
2023/05/03 17:49:24;;;;;;;1.83;1.30;;;16.60;89.10;;;;;;10411112;28;20030;-86
2023/05/03 17:54:27;;;;;;;2.00;1.20;;;16.50;89.10;;;;;;10421020;28;20022;-87
2023/05/03 17:59:28;;;;;;;2.35;1.40;;;16.70;89.40;;;;;;10402666;28;20036;-86
2023/05/03 18:04:29;;;;;;;1.42;1.20;;;17.40;89.80;;;;;;10394089;28;20049;-87
2023/05/03 18:09:31;;;;;;;1.50;1.30;;;16.40;89.30;;;;;;10393308;28;20053;-86
2023/05/03 18:14:34;;;;;;;2.63;1.48;;;16.30;89.20;;;;;;10366725;28;20026;-87
2023/05/03 18:19:35;;;;;;;1.73;1.40;;;16.20;89.10;;;;;;10410282;28;20040;-87
2023/05/03 18:24:36;;;;;;;2.38;1.35;;;16.20;89.50;;;;;;10408987;28;20022;-86
2023/05/03 18:29:37;;;;;;;2.03;1.45;;;16.20;89.70;;;;;;10404825;28;20026;-86
2023/05/03 18:34:37;;;;;;;2.03;1.83;;;16.10;89.60;;;;;;10395753;28;20148;-86
2023/05/03 18:39:38;;;;;;;1.48;1.38;;;16.00;89.70;;;;;;10392744;28;20033;-88
2023/05/03 18:44:38;;;;;;;3.00;1.42;;;16.00;89.90;;;;;;10394231;28;20028;-86
2023/05/03 18:49:39;;;;;;;2.92;1.30;;;15.90;89.90;;;;;;10395175;28;20032;-88
2023/05/03 18:54:40;;;;;;;2.38;1.40;;;16.60;90.20;;;;;;10394404;28;20428;-86
2023/05/03 18:59:40;;;;;;;2.70;1.50;;;15.90;90.10;;;;;;10401839;28;20049;-86
2023/05/03 19:04:41;;;;;;;1.98;1.38;;;16.00;90.10;;;;;;10395754;28;20104;-87
2023/05/03 19:09:42;;;;;;;1.88;1.67;;;15.80;90.10;;;;;;10387455;28;20029;-86
2023/05/03 19:14:43;;;;;;;2.83;2.40;;;15.70;90.20;;;;;;10390606;28;20041;-86
2023/05/03 19:19:43;;;;;;;3.10;2.40;;;15.70;90.00;;;;;;10396066;28;20091;-87
2023/05/03 19:24:44;;;;;;;2.00;1.90;;;15.60;90.00;;;;;;10396575;28;20037;-87
2023/05/03 19:29:45;;;;;;;3.47;2.30;;;15.40;90.00;;;;;;10403124;28;20367;-86
2023/05/03 19:34:46;;;;;;;3.45;2.70;;;15.40;90.10;;;;;;10389806;28;20034;-86
2023/05/03 19:39:49;;;;;;;2.92;2.47;;;15.30;90.00;;;;;;10399117;28;20021;-85
2023/05/03 19:44:50;;;;;;;4.35;2.53;;;15.30;90.00;;;;;;10394113;28;20478;-86
2023/05/03 19:49:50;;;;;;;3.05;2.10;;;15.30;90.00;;;;;;10397257;28;20041;-87
2023/05/03 19:54:51;;;;;;;3.35;2.20;;;15.20;90.10;;;;;;10388374;28;20035;-86
2023/05/03 19:59:52;;;;;;;2.88;2.47;;;15.70;90.30;;;;;;10397307;28;20034;-85
2023/05/03 20:04:55;;;;;;;2.50;2.28;;;15.20;90.20;;;;;;10388102;28;20079;-85
2023/05/03 20:09:56;;;;;;;2.72;2.53;;;15.10;90.10;;;;;;10385349;28;20029;-85
2023/05/03 20:14:57;;;;;;;2.40;2.20;;;15.10;90.20;;;;;;10390204;28;20095;-85
2023/05/03 20:20:09;;;;;;;2.88;2.00;;;15.30;90.30;;;;;;10388594;28;20037;-85
2023/05/03 20:25:09;;;;;;;3.15;2.42;;;15.00;90.10;;;;;;10388598;28;20087;-84
2023/05/03 20:30:10;;;;;;;2.80;2.40;;;15.00;90.30;;;;;;10385381;28;20045;-84
2023/05/03 20:35:12;;;;;;;2.42;2.00;;;14.90;90.30;;;;;;10387883;28;20056;-86
2023/05/03 20:40:12;;;;;;;2.83;2.13;;;14.90;90.30;;;;;;10389909;28;20065;-87
2023/05/03 20:45:14;;;;;;;2.28;2.08;;;14.80;90.30;;;;;;10413690;28;20116;-89
2023/05/03 20:50:15;;;;;;;3.50;2.20;;;14.80;90.30;;;;;;10391338;28;20056;-86
2023/05/03 20:55:15;;;;;;;3.03;2.10;;;14.70;90.30;;;;;;10384170;28;20112;-86
2023/05/03 21:00:16;;;;;;;2.58;2.20;;;14.70;90.30;;;;;;10388330;28;20334;-84
2023/05/03 21:05:18;;;;;;;4.53;2.38;;;14.60;90.30;;;;;;10403336;28;20490;-85
2023/05/03 21:10:18;;;;;;;3.72;2.35;;;14.60;90.40;;;;;;10391878;28;20494;-87
2023/05/03 21:15:19;;;;;;;3.08;2.53;;;14.60;90.40;;;;;;10383975;28;20037;-87
2023/05/03 21:20:20;;;;;;;3.67;2.80;;;14.90;90.50;;;;;;10385579;28;20034;-87
2023/05/03 21:25:20;;;;;;;3.40;2.58;;;14.50;90.40;;;;;;10389433;28;20062;-88
2023/05/03 21:30:22;;;;;;;2.97;2.40;;;14.50;90.40;;;;;;10387060;28;20018;-88
2023/05/03 21:35:26;;;;;;;2.88;2.58;;;14.70;90.40;;;;;;10390079;28;20117;-83
2023/05/03 21:40:27;;;;;;;3.03;2.78;;;14.40;90.30;;;;;;10385996;28;20474;-84
2023/05/03 21:45:27;;;;;;;3.10;2.42;;;14.50;90.30;;;;;;10394314;28;20032;-87
2023/05/03 21:50:28;;;;;;;3.00;2.70;;;14.30;90.30;;;;;;10388248;28;20018;-87
2023/05/03 21:55:29;;;;;;;2.63;2.38;;;14.30;90.30;;;;;;10385783;28;20490;-87
2023/05/03 22:00:30;;;;;;;2.65;2.40;;;14.20;90.30;;;;;;10404919;28;20025;-87
2023/05/03 22:05:31;;;;;;;3.67;2.72;;;14.20;90.30;;;;;;10387879;28;20056;-87
2023/05/03 22:10:32;;;;;;;3.47;2.55;;;14.60;90.30;;;;;;10387460;28;20079;-88
2023/05/03 22:15:33;;;;;;;5.20;2.80;;;14.20;90.20;;;;;;10390339;28;20037;-87
2023/05/03 22:20:34;;;;;;;3.90;3.00;;;14.10;90.20;;;;;;10392618;28;20068;-87
2023/05/03 22:25:43;;;;;;;3.92;3.00;;;14.00;90.20;;;;;;10396984;28;20996;-87
2023/05/03 22:30:53;;;;;;;4.20;3.20;;;14.00;90.10;;;;;;10397642;28;20036;-87
2023/05/03 22:35:57;;;;;;;3.75;2.92;;;15.00;90.30;;;;;;10399535;28;20025;-87
2023/05/03 22:41:16;;;;;;;3.53;2.80;;;15.10;90.40;;;;;;10397163;28;20029;-87
2023/05/03 22:46:20;;;;;;;;;;;13.90;90.00;;;;;;10399058;28;20024;-87
2023/05/03 22:51:21;;;;;;;2.78;2.58;;;13.80;89.70;;;;;;10403016;28;20269;-87
2023/05/03 22:56:29;;;;;;;3.47;2.50;;;13.80;90.10;;;;;;10402074;28;20029;-87
2023/05/03 23:01:30;;;;;;;3.50;2.40;;;15.10;90.30;;;;;;10390807;28;20485;-87
2023/05/03 23:06:31;;;;;;;2.70;2.47;;;13.70;90.00;;;;;;10398556;28;20028;-88
2023/05/03 23:11:32;;;;;;;2.63;2.38;;;14.60;90.20;;;;;;10393409;28;20028;-87
2023/05/03 23:16:48;;;;;;;4.80;2.40;;;13.30;89.80;;;;;;10417783;28;20049;-87
2023/05/03 23:21:52;;;;;;;2.47;2.17;;;13.60;90.00;;;;;;10400358;28;20022;-88
2023/05/03 23:26:55;;;;;;;2.65;2.08;;;14.20;90.10;;;;;;10409736;28;20021;-87
2023/05/03 23:31:56;;;;;;;3.05;2.40;;;14.30;90.10;;;;;;10393576;28;20021;-87
2023/05/03 23:36:57;;;;;;;3.65;2.25;;;14.00;90.10;;;;;;10386559;28;20048;-87
2023/05/03 23:41:58;;;;;;;3.65;2.63;;;13.90;90.30;;;;;;10392597;28;20028;-87
2023/05/03 23:46:58;;;;;;;3.58;2.38;;;13.40;90.00;;;;;;10393424;28;20018;-87
2023/05/03 23:51:59;;;;;;;2.83;2.20;;;13.40;90.00;;;;;;10401442;28;20026;-87
2023/05/03 23:57:00;;;;;;;2.72;2.10;;;13.40;90.00;;;;;;10393630;28;20025;-87
